createdAt,value
2022-10-30T00:00:15.465Z,1013.77
2022-10-30T00:01:15.294Z,1013.80
2022-10-30T00:02:15.404Z,1013.78
2022-10-30T00:03:15.424Z,1013.80
2022-10-30T00:04:15.439Z,1013.80
2022-10-30T00:05:15.371Z,1013.83
2022-10-30T00:07:15.737Z,1013.84
2022-10-30T00:09:15.597Z,1013.79
2022-10-30T00:10:15.532Z,1013.80
2022-10-30T00:11:15.582Z,1013.79
2022-10-30T00:12:15.701Z,1013.83
2022-10-30T00:13:15.633Z,1013.86
2022-10-30T00:14:15.911Z,1013.85
2022-10-30T00:15:15.690Z,1013.86
2022-10-30T00:16:15.725Z,1013.84
2022-10-30T00:17:15.764Z,1013.87
2022-10-30T00:18:15.790Z,1013.84
2022-10-30T00:19:15.822Z,1013.84
2022-10-30T00:20:16.153Z,1013.83
2022-10-30T00:22:15.916Z,1013.92
2022-10-30T00:23:15.949Z,1013.91
2022-10-30T00:24:15.983Z,1013.96
2022-10-30T00:25:16.015Z,1013.92
2022-10-30T00:26:16.296Z,1013.92
2022-10-30T00:27:16.099Z,1013.91
2022-10-30T00:28:16.114Z,1013.89
2022-10-30T00:29:16.143Z,1013.92
2022-10-30T00:30:16.174Z,1013.92
2022-10-30T00:31:16.209Z,1013.96
2022-10-30T00:32:16.546Z,1013.95
2022-10-30T00:33:16.413Z,1013.94
2022-10-30T00:34:16.304Z,1013.93
2022-10-30T00:35:16.340Z,1013.93
2022-10-30T00:36:16.370Z,1013.94
2022-10-30T00:37:16.459Z,1013.92
2022-10-30T00:38:16.435Z,1013.87
2022-10-30T00:39:16.771Z,1013.93
2022-10-30T00:40:16.497Z,1013.91
2022-10-30T00:41:16.628Z,1013.88
2022-10-30T00:42:16.587Z,1013.91
2022-10-30T00:43:16.626Z,1013.86
2022-10-30T00:45:16.712Z,1013.87
2022-10-30T00:46:16.990Z,1013.85
2022-10-30T00:49:16.783Z,1013.85
2022-10-30T00:50:16.889Z,1013.87
2022-10-30T00:51:16.850Z,1013.81
2022-10-30T00:52:16.887Z,1013.81
2022-10-30T00:53:17.220Z,1013.81
2022-10-30T00:54:16.947Z,1013.81
2022-10-30T00:55:16.983Z,1013.81
2022-10-30T00:56:17.014Z,1013.83
2022-10-30T00:57:17.043Z,1013.80
2022-10-30T00:58:17.077Z,1013.82
2022-10-30T00:59:17.129Z,1013.80
2022-10-30T01:00:17.439Z,1013.79
2022-10-30T01:01:17.255Z,1013.80
2022-10-30T01:03:17.239Z,1013.82
2022-10-30T01:04:17.265Z,1013.83
2022-10-30T01:05:17.307Z,1013.80
2022-10-30T01:06:17.331Z,1013.79
2022-10-30T01:07:17.617Z,1013.80
2022-10-30T01:08:17.435Z,1013.81
2022-10-30T01:09:17.531Z,1013.83
2022-10-30T01:10:17.462Z,1013.82
2022-10-30T01:11:17.493Z,1013.83
2022-10-30T01:12:17.522Z,1013.81
2022-10-30T01:13:17.561Z,1013.79
2022-10-30T01:14:17.836Z,1013.80
2022-10-30T01:15:17.639Z,1013.78
2022-10-30T01:16:17.653Z,1013.79
2022-10-30T01:17:17.696Z,1013.81
2022-10-30T01:18:17.717Z,1013.82
2022-10-30T01:19:17.749Z,1013.80
2022-10-30T01:21:17.814Z,1013.79
2022-10-30T01:23:18.178Z,1013.74
2022-10-30T01:24:17.912Z,1013.72
2022-10-30T01:25:17.943Z,1013.75
2022-10-30T01:26:17.972Z,1013.73
2022-10-30T01:27:18.004Z,1013.78
2022-10-30T01:28:18.137Z,1013.79
2022-10-30T01:29:18.071Z,1013.77
2022-10-30T01:30:18.403Z,1013.80
2022-10-30T01:31:18.156Z,1013.82
2022-10-30T01:32:18.166Z,1013.84
2022-10-30T01:33:18.200Z,1013.86
2022-10-30T01:34:18.234Z,1013.87
2022-10-30T01:35:18.263Z,1013.89
2022-10-30T01:36:18.293Z,1013.87
2022-10-30T01:37:18.629Z,1013.85
2022-10-30T01:38:18.357Z,1013.83
2022-10-30T01:39:18.392Z,1013.83
2022-10-30T01:40:18.425Z,1013.80
2022-10-30T01:41:18.461Z,1013.81
2022-10-30T01:42:18.487Z,1013.84
2022-10-30T01:44:18.554Z,1013.85
2022-10-30T01:45:18.883Z,1013.89
2022-10-30T01:46:18.612Z,1013.84
2022-10-30T01:47:18.668Z,1013.83
2022-10-30T01:48:18.680Z,1013.82
2022-10-30T01:49:18.758Z,1013.79
2022-10-30T01:51:18.784Z,1013.79
2022-10-30T01:52:19.062Z,1013.78
2022-10-30T01:53:18.843Z,1013.79
2022-10-30T01:54:18.873Z,1013.76
2022-10-30T01:55:18.906Z,1013.76
2022-10-30T01:56:18.931Z,1013.80
2022-10-30T01:57:18.973Z,1013.76
2022-10-30T01:58:19.001Z,1013.81
2022-10-30T01:59:19.434Z,1013.84
2022-10-30T02:00:19.063Z,1013.80
2022-10-30T02:02:19.258Z,1013.80
2022-10-30T02:04:19.214Z,1013.77
2022-10-30T02:05:19.223Z,1013.74
2022-10-30T02:07:19.544Z,1013.75
2022-10-30T02:08:19.320Z,1013.73
2022-10-30T02:09:19.356Z,1013.67
2022-10-30T02:10:19.383Z,1013.64
2022-10-30T02:11:19.416Z,1013.64
2022-10-30T02:12:19.450Z,1013.64
2022-10-30T02:13:19.781Z,1013.64
2022-10-30T02:14:19.510Z,1013.64
2022-10-30T02:16:19.577Z,1013.54
2022-10-30T02:18:19.640Z,1013.56
2022-10-30T02:19:19.772Z,1013.55
2022-10-30T02:20:19.977Z,1013.55
2022-10-30T02:21:19.736Z,1013.51
2022-10-30T02:22:19.958Z,1013.48
2022-10-30T02:23:19.804Z,1013.46
2022-10-30T02:24:19.833Z,1013.45
2022-10-30T02:25:19.867Z,1013.44
2022-10-30T02:26:19.896Z,1013.48
2022-10-30T02:27:20.181Z,1013.46
2022-10-30T02:29:19.996Z,1013.44
2022-10-30T02:30:20.031Z,1013.50
2022-10-30T02:31:20.057Z,1013.51
2022-10-30T02:32:20.087Z,1013.55
2022-10-30T02:34:20.152Z,1013.57
2022-10-30T02:35:20.445Z,1013.60
2022-10-30T02:36:20.240Z,1013.65
2022-10-30T02:37:20.250Z,1013.67
2022-10-30T02:38:20.284Z,1013.69
2022-10-30T02:39:20.310Z,1013.70
2022-10-30T02:41:20.384Z,1013.64
2022-10-30T02:42:20.713Z,1013.57
2022-10-30T02:43:20.441Z,1013.55
2022-10-30T02:44:20.478Z,1013.52
2022-10-30T02:45:20.508Z,1013.55
2022-10-30T02:46:20.534Z,1013.50
2022-10-30T02:48:20.610Z,1013.59
2022-10-30T02:49:20.932Z,1013.58
2022-10-30T02:50:20.664Z,1013.60
2022-10-30T02:51:20.696Z,1013.59
2022-10-30T02:52:20.748Z,1013.55
2022-10-30T02:53:20.763Z,1013.56
2022-10-30T02:54:20.794Z,1013.53
2022-10-30T02:56:21.161Z,1013.53
2022-10-30T02:57:20.897Z,1013.63
2022-10-30T02:58:21.020Z,1013.62
2022-10-30T02:59:21.052Z,1013.65
2022-10-30T03:00:20.984Z,1013.66
2022-10-30T03:01:21.165Z,1013.61
2022-10-30T03:02:21.109Z,1013.57
2022-10-30T03:03:24.001Z,1013.60
2022-10-30T03:04:21.114Z,1013.62
2022-10-30T03:05:21.147Z,1013.62
2022-10-30T03:06:21.173Z,1013.61
2022-10-30T03:07:21.306Z,1013.64
2022-10-30T03:08:21.261Z,1013.64
2022-10-30T03:09:21.272Z,1013.59
2022-10-30T03:10:21.555Z,1013.55
2022-10-30T03:12:21.368Z,1013.58
2022-10-30T03:13:21.398Z,1013.57
2022-10-30T03:14:21.429Z,1013.65
2022-10-30T03:15:21.460Z,1013.67
2022-10-30T03:16:21.496Z,1013.69
2022-10-30T03:17:21.831Z,1013.69
2022-10-30T03:18:21.560Z,1013.73
2022-10-30T03:19:21.595Z,1013.65
2022-10-30T03:20:21.624Z,1013.66
2022-10-30T03:21:21.663Z,1013.66
2022-10-30T03:22:21.703Z,1013.65
2022-10-30T03:23:21.719Z,1013.62
2022-10-30T03:24:22.035Z,1013.60
2022-10-30T03:25:21.831Z,1013.61
2022-10-30T03:26:21.814Z,1013.63
2022-10-30T03:27:21.845Z,1013.65
2022-10-30T03:28:21.888Z,1013.64
2022-10-30T03:29:21.907Z,1013.63
2022-10-30T03:30:21.940Z,1013.60
2022-10-30T03:31:22.225Z,1013.61
2022-10-30T03:33:22.039Z,1013.59
2022-10-30T03:35:22.100Z,1013.63
2022-10-30T03:37:22.170Z,1013.65
2022-10-30T03:38:22.497Z,1013.62
2022-10-30T03:39:22.228Z,1013.66
2022-10-30T03:40:22.279Z,1013.63
2022-10-30T03:41:22.293Z,1013.63
2022-10-30T03:42:22.345Z,1013.64
2022-10-30T03:43:22.357Z,1013.65
2022-10-30T03:44:22.388Z,1013.68
2022-10-30T03:45:22.721Z,1013.67
2022-10-30T03:46:22.451Z,1013.66
2022-10-30T03:47:22.484Z,1013.69
2022-10-30T03:48:22.517Z,1013.70
2022-10-30T03:49:22.548Z,1013.68
2022-10-30T03:50:22.582Z,1013.67
2022-10-30T03:51:22.867Z,1013.70
2022-10-30T03:52:22.642Z,1013.72
2022-10-30T03:53:22.676Z,1013.72
2022-10-30T03:54:22.704Z,1013.75
2022-10-30T03:55:22.742Z,1013.74
2022-10-30T03:56:22.794Z,1013.76
2022-10-30T03:57:23.103Z,1013.78
2022-10-30T03:58:22.832Z,1013.81
2022-10-30T03:59:22.867Z,1013.82
2022-10-30T04:01:23.105Z,1013.85
2022-10-30T04:02:22.991Z,1013.89
2022-10-30T04:03:23.248Z,1013.92
2022-10-30T04:04:23.035Z,1013.91
2022-10-30T04:05:23.056Z,1013.93
2022-10-30T04:06:23.092Z,1013.94
2022-10-30T04:07:23.120Z,1013.91
2022-10-30T04:08:23.392Z,1013.92
2022-10-30T04:10:24.055Z,1013.94
2022-10-30T04:11:23.585Z,1013.94
2022-10-30T04:12:23.298Z,1013.97
2022-10-30T04:13:23.312Z,1013.95
2022-10-30T04:14:23.347Z,1013.95
2022-10-30T04:15:23.374Z,1013.96
2022-10-30T04:16:23.406Z,1013.98
2022-10-30T04:17:23.693Z,1013.97
2022-10-30T04:18:23.468Z,1014.00
2022-10-30T04:19:23.502Z,1014.02
2022-10-30T04:20:23.532Z,1013.98
2022-10-30T04:21:23.570Z,1013.97
2022-10-30T04:22:23.598Z,1013.99
2022-10-30T04:23:23.628Z,1014.01
2022-10-30T04:24:23.660Z,1013.95
2022-10-30T04:25:23.703Z,1013.97
2022-10-30T04:26:23.831Z,1014.01
2022-10-30T04:27:23.759Z,1013.99
2022-10-30T04:28:23.819Z,1013.99
2022-10-30T04:29:24.169Z,1013.94
2022-10-30T04:30:24.153Z,1013.98
2022-10-30T04:31:23.883Z,1013.97
2022-10-30T04:32:24.026Z,1013.95
2022-10-30T04:34:23.979Z,1013.96
2022-10-30T04:35:24.010Z,1013.96
2022-10-30T04:37:24.087Z,1013.93
2022-10-30T04:38:24.355Z,1013.93
2022-10-30T04:39:24.139Z,1013.92
2022-10-30T04:40:24.167Z,1013.95
2022-10-30T04:41:24.200Z,1013.98
2022-10-30T04:42:24.230Z,1013.94
2022-10-30T04:43:24.263Z,1013.91
2022-10-30T04:44:24.317Z,1013.87
2022-10-30T04:45:24.629Z,1013.84
2022-10-30T04:46:24.359Z,1013.83
2022-10-30T04:47:24.477Z,1013.84
2022-10-30T04:48:24.423Z,1013.81
2022-10-30T04:49:24.455Z,1013.82
2022-10-30T04:51:24.521Z,1013.84
2022-10-30T04:52:24.799Z,1013.77
2022-10-30T04:53:24.585Z,1013.80
2022-10-30T04:54:24.612Z,1013.80
2022-10-30T04:55:24.746Z,1013.78
2022-10-30T04:56:24.683Z,1013.80
2022-10-30T04:57:24.709Z,1013.80
2022-10-30T04:59:24.775Z,1013.80
2022-10-30T05:00:25.096Z,1013.81
2022-10-30T05:01:24.924Z,1013.80
2022-10-30T05:02:25.095Z,1013.83
2022-10-30T05:03:24.904Z,1013.78
2022-10-30T05:04:24.934Z,1013.73
2022-10-30T05:05:24.962Z,1013.75
2022-10-30T05:06:24.998Z,1013.72
2022-10-30T05:07:25.323Z,1013.75
2022-10-30T05:09:25.092Z,1013.72
2022-10-30T05:10:25.127Z,1013.72
2022-10-30T05:11:25.155Z,1013.68
2022-10-30T05:13:25.213Z,1013.65
2022-10-30T05:14:25.497Z,1013.62
2022-10-30T05:15:25.276Z,1013.61
2022-10-30T05:16:25.328Z,1013.61
2022-10-30T05:18:25.369Z,1013.58
2022-10-30T05:20:25.442Z,1013.60
2022-10-30T05:21:25.797Z,1013.57
2022-10-30T05:22:25.605Z,1013.58
2022-10-30T05:23:25.529Z,1013.56
2022-10-30T05:24:25.567Z,1013.60
2022-10-30T05:25:25.596Z,1013.60
2022-10-30T05:26:25.627Z,1013.61
2022-10-30T05:27:25.658Z,1013.61
2022-10-30T05:29:25.976Z,1013.56
2022-10-30T05:30:25.757Z,1013.52
2022-10-30T05:31:25.791Z,1013.49
2022-10-30T05:33:25.867Z,1013.45
2022-10-30T05:34:25.898Z,1013.46
2022-10-30T05:35:25.908Z,1013.45
2022-10-30T05:37:26.277Z,1013.47
2022-10-30T05:38:26.004Z,1013.48
2022-10-30T05:39:26.138Z,1013.45
2022-10-30T05:41:26.107Z,1013.45
2022-10-30T05:42:26.134Z,1013.47
2022-10-30T05:44:47.235Z,1013.45
2022-10-30T05:45:26.232Z,1013.45
2022-10-30T05:47:26.294Z,1013.38
2022-10-30T05:48:26.324Z,1013.36
2022-10-30T05:49:26.373Z,1013.39
2022-10-30T05:50:26.386Z,1013.35
2022-10-30T05:51:26.669Z,1013.36
2022-10-30T05:52:26.451Z,1013.35
2022-10-30T05:54:26.570Z,1013.35
2022-10-30T05:55:26.546Z,1013.31
2022-10-30T05:56:26.576Z,1013.34
2022-10-30T05:57:26.613Z,1013.37
2022-10-30T05:59:26.971Z,1013.42
2022-10-30T06:00:26.703Z,1013.41
2022-10-30T06:01:26.977Z,1013.40
2022-10-30T06:02:26.905Z,1013.42
2022-10-30T06:03:26.802Z,1013.42
2022-10-30T06:04:26.827Z,1013.45
2022-10-30T06:05:26.883Z,1013.47
2022-10-30T06:06:27.145Z,1013.45
2022-10-30T06:07:26.921Z,1013.48
2022-10-30T06:09:26.993Z,1013.51
2022-10-30T06:10:27.017Z,1013.55
2022-10-30T06:11:27.052Z,1013.57
2022-10-30T06:12:27.081Z,1013.58
2022-10-30T06:13:27.413Z,1013.57
2022-10-30T06:14:27.190Z,1013.57
2022-10-30T06:15:27.180Z,1013.57
2022-10-30T06:17:27.238Z,1013.58
2022-10-30T06:18:27.271Z,1013.62
2022-10-30T06:19:27.311Z,1013.60
2022-10-30T06:20:27.586Z,1013.59
2022-10-30T06:21:27.384Z,1013.54
2022-10-30T06:24:27.463Z,1013.56
2022-10-30T06:25:27.492Z,1013.58
2022-10-30T06:26:27.527Z,1013.57
2022-10-30T06:27:28.156Z,1013.64
2022-10-30T06:28:27.586Z,1013.58
2022-10-30T06:29:27.619Z,1013.60
2022-10-30T06:30:27.649Z,1013.59
2022-10-30T06:31:27.683Z,1013.59
2022-10-30T06:33:27.745Z,1013.59
2022-10-30T06:34:28.074Z,1013.59
2022-10-30T06:35:27.813Z,1013.61
2022-10-30T06:36:27.848Z,1013.61
2022-10-30T06:37:28.002Z,1013.62
2022-10-30T06:38:28.005Z,1013.66
2022-10-30T06:39:27.944Z,1013.64
2022-10-30T06:41:30.400Z,1013.66
2022-10-30T06:42:28.040Z,1013.68
2022-10-30T06:43:28.064Z,1013.68
2022-10-30T06:44:28.092Z,1013.67
2022-10-30T06:47:28.435Z,1013.77
2022-10-30T06:48:28.218Z,1013.77
2022-10-30T06:49:28.246Z,1013.76
2022-10-30T06:50:28.300Z,1013.76
2022-10-30T06:51:28.312Z,1013.82
2022-10-30T06:52:28.348Z,1013.84
2022-10-30T06:53:28.397Z,1013.80
2022-10-30T06:54:28.659Z,1013.79
2022-10-30T06:56:28.475Z,1013.78
2022-10-30T06:58:28.535Z,1013.81
2022-10-30T06:59:28.572Z,1013.79
2022-10-30T07:00:28.861Z,1013.79
2022-10-30T07:01:28.662Z,1013.78
2022-10-30T07:02:28.825Z,1013.76
2022-10-30T07:03:28.690Z,1013.76
2022-10-30T07:04:28.723Z,1013.75
2022-10-30T07:05:28.764Z,1013.75
2022-10-30T07:06:29.090Z,1013.75
2022-10-30T07:07:28.819Z,1013.75
2022-10-30T07:08:28.851Z,1013.76
2022-10-30T07:09:28.901Z,1013.75
2022-10-30T07:10:29.052Z,1013.78
2022-10-30T07:11:28.947Z,1013.81
2022-10-30T07:12:29.383Z,1013.83
2022-10-30T07:13:29.112Z,1013.84
2022-10-30T07:14:29.045Z,1013.88
2022-10-30T07:15:29.166Z,1013.87
2022-10-30T07:16:29.121Z,1013.85
2022-10-30T07:17:29.150Z,1013.81
2022-10-30T07:18:29.167Z,1013.83
2022-10-30T07:19:29.497Z,1013.80
2022-10-30T07:20:29.326Z,1013.82
2022-10-30T07:21:29.262Z,1013.83
2022-10-30T07:22:29.403Z,1013.85
2022-10-30T07:23:29.321Z,1013.84
2022-10-30T07:24:29.356Z,1013.83
2022-10-30T07:26:29.737Z,1013.80
2022-10-30T07:27:29.452Z,1013.78
2022-10-30T07:28:29.482Z,1013.78
2022-10-30T07:29:29.513Z,1013.80
2022-10-30T07:30:29.550Z,1013.78
2022-10-30T07:32:29.709Z,1013.78
2022-10-30T07:33:29.898Z,1013.84
2022-10-30T07:34:29.677Z,1013.83
2022-10-30T07:35:29.704Z,1013.85
2022-10-30T07:36:29.738Z,1013.82
2022-10-30T07:37:29.767Z,1013.84
2022-10-30T07:39:29.855Z,1013.81
2022-10-30T07:40:30.263Z,1013.84
2022-10-30T07:42:29.944Z,1013.84
2022-10-30T07:43:29.958Z,1013.81
2022-10-30T07:44:29.988Z,1013.77
2022-10-30T07:45:30.065Z,1013.77
2022-10-30T07:46:30.048Z,1013.76
2022-10-30T07:48:30.516Z,1013.77
2022-10-30T07:49:30.151Z,1013.80
2022-10-30T07:51:30.216Z,1013.80
2022-10-30T07:52:30.243Z,1013.84
2022-10-30T07:53:30.280Z,1013.84
2022-10-30T07:54:30.330Z,1013.85
2022-10-30T07:55:30.647Z,1013.85
2022-10-30T07:57:30.402Z,1013.85
2022-10-30T07:58:30.467Z,1013.87
2022-10-30T07:59:30.466Z,1013.84
2022-10-30T08:00:30.495Z,1013.88
2022-10-30T08:01:30.711Z,1013.88
2022-10-30T08:03:30.986Z,1013.84
2022-10-30T08:04:30.620Z,1013.87
2022-10-30T08:05:30.652Z,1013.86
2022-10-30T08:07:30.719Z,1013.89
2022-10-30T08:08:30.745Z,1013.87
2022-10-30T08:10:31.120Z,1013.87
2022-10-30T08:11:30.843Z,1013.88
2022-10-30T08:12:30.876Z,1013.89
2022-10-30T08:14:30.955Z,1013.88
2022-10-30T08:15:31.095Z,1013.93
2022-10-30T08:16:31.001Z,1013.91
2022-10-30T08:17:31.034Z,1013.93
2022-10-30T08:18:31.061Z,1013.93
2022-10-30T08:19:31.098Z,1013.91
2022-10-30T08:20:31.227Z,1013.92
2022-10-30T08:21:31.160Z,1013.91
2022-10-30T08:22:31.189Z,1013.90
2022-10-30T08:23:31.477Z,1013.93
2022-10-30T08:24:31.270Z,1013.91
2022-10-30T08:25:31.291Z,1013.88
2022-10-30T08:26:31.318Z,1013.90
2022-10-30T08:27:31.355Z,1013.83
2022-10-30T08:28:32.794Z,1013.86
2022-10-30T08:29:31.422Z,1013.85
2022-10-30T08:30:32.068Z,1013.86
2022-10-30T08:31:31.484Z,1013.87
2022-10-30T08:32:31.534Z,1013.87
2022-10-30T08:33:31.564Z,1013.87
2022-10-30T08:34:31.599Z,1013.85
2022-10-30T08:35:31.676Z,1013.88
2022-10-30T08:36:31.745Z,1013.88
2022-10-30T08:37:31.971Z,1013.87
2022-10-30T08:38:31.701Z,1013.81
2022-10-30T08:39:31.738Z,1013.81
2022-10-30T08:40:31.767Z,1013.75
2022-10-30T08:41:31.798Z,1013.73
2022-10-30T08:42:31.928Z,1013.73
2022-10-30T08:43:31.920Z,1013.72
2022-10-30T08:44:32.144Z,1013.74
2022-10-30T08:45:31.929Z,1013.70
2022-10-30T08:46:31.977Z,1013.73
2022-10-30T08:47:31.991Z,1013.71
2022-10-30T08:48:32.023Z,1013.72
2022-10-30T08:50:32.449Z,1013.69
2022-10-30T08:51:32.115Z,1013.72
2022-10-30T08:53:32.181Z,1013.71
2022-10-30T08:54:32.214Z,1013.70
2022-10-30T08:55:32.251Z,1013.68
2022-10-30T08:56:32.586Z,1013.68
2022-10-30T08:57:32.308Z,1013.66
2022-10-30T08:58:32.399Z,1013.66
2022-10-30T08:59:32.385Z,1013.66
2022-10-30T09:00:32.407Z,1013.63
2022-10-30T09:01:32.602Z,1013.64
2022-10-30T09:02:32.934Z,1013.59
2022-10-30T09:03:32.500Z,1013.61
2022-10-30T09:04:32.589Z,1013.60
2022-10-30T09:05:32.564Z,1013.60
2022-10-30T09:06:32.596Z,1013.58
2022-10-30T09:07:32.636Z,1013.59
2022-10-30T09:08:32.956Z,1013.65
2022-10-30T09:09:32.690Z,1013.65
2022-10-30T09:10:32.722Z,1013.64
2022-10-30T09:11:32.755Z,1013.65
2022-10-30T09:12:32.787Z,1013.67
2022-10-30T09:13:32.938Z,1013.62
2022-10-30T09:14:32.858Z,1013.66
2022-10-30T09:15:33.135Z,1013.61
2022-10-30T09:16:32.931Z,1013.61
2022-10-30T09:17:32.958Z,1013.61
2022-10-30T09:18:32.999Z,1013.59
2022-10-30T09:19:33.054Z,1013.57
2022-10-30T09:21:33.377Z,1013.56
2022-10-30T09:22:33.105Z,1013.55
2022-10-30T09:23:33.138Z,1013.54
2022-10-30T09:24:33.173Z,1013.49
2022-10-30T09:25:33.205Z,1013.46
2022-10-30T09:26:33.241Z,1013.45
2022-10-30T09:28:33.550Z,1013.46
2022-10-30T09:29:33.432Z,1013.45
2022-10-30T09:30:33.366Z,1013.45
2022-10-30T09:32:33.436Z,1013.43
2022-10-30T09:33:33.459Z,1013.47
2022-10-30T09:34:33.519Z,1013.45
2022-10-30T09:36:33.811Z,1013.48
2022-10-30T09:37:33.590Z,1013.49
2022-10-30T09:38:33.625Z,1013.45
2022-10-30T09:39:33.654Z,1013.47
2022-10-30T09:40:33.684Z,1013.45
2022-10-30T09:41:33.720Z,1013.45
2022-10-30T09:42:33.852Z,1013.45
2022-10-30T09:43:34.081Z,1013.43
2022-10-30T09:44:33.867Z,1013.44
2022-10-30T09:45:33.851Z,1013.44
2022-10-30T09:46:33.877Z,1013.44
2022-10-30T09:47:33.913Z,1013.41
2022-10-30T09:48:33.950Z,1013.44
2022-10-30T09:50:37.220Z,1013.49
2022-10-30T09:51:34.047Z,1013.45
2022-10-30T09:52:34.084Z,1013.48
2022-10-30T09:53:34.111Z,1013.52
2022-10-30T09:54:34.175Z,1013.48
2022-10-30T09:55:34.178Z,1013.47
2022-10-30T09:56:34.210Z,1013.44
2022-10-30T09:57:34.637Z,1013.44
2022-10-30T09:58:34.267Z,1013.44
2022-10-30T10:00:34.744Z,1013.46
2022-10-30T10:01:34.502Z,1013.45
2022-10-30T10:03:34.734Z,1013.46
2022-10-30T10:04:34.466Z,1013.42
2022-10-30T10:05:34.507Z,1013.40
2022-10-30T10:06:34.551Z,1013.42
2022-10-30T10:07:34.561Z,1013.45
2022-10-30T10:08:34.596Z,1013.37
2022-10-30T10:09:34.978Z,1013.41
2022-10-30T10:10:34.663Z,1013.37
2022-10-30T10:11:34.696Z,1013.38
2022-10-30T10:12:34.730Z,1013.42
2022-10-30T10:13:34.794Z,1013.41
2022-10-30T10:14:34.806Z,1013.40
2022-10-30T10:15:35.119Z,1013.39
2022-10-30T10:16:34.855Z,1013.41
2022-10-30T10:17:34.892Z,1013.36
2022-10-30T10:18:35.021Z,1013.38
2022-10-30T10:19:34.952Z,1013.40
2022-10-30T10:20:34.985Z,1013.35
2022-10-30T10:21:35.317Z,1013.38
2022-10-30T10:22:35.071Z,1013.40
2022-10-30T10:23:35.086Z,1013.39
2022-10-30T10:24:35.115Z,1013.35
2022-10-30T10:26:35.182Z,1013.36
2022-10-30T10:28:36.800Z,1013.34
2022-10-30T10:29:35.389Z,1013.33
2022-10-30T10:31:35.341Z,1013.40
2022-10-30T10:32:35.378Z,1013.41
2022-10-30T10:34:35.843Z,1013.45
2022-10-30T10:35:35.477Z,1013.45
2022-10-30T10:36:35.513Z,1013.42
2022-10-30T10:38:35.601Z,1013.45
2022-10-30T10:39:35.605Z,1013.44
2022-10-30T10:40:35.643Z,1013.41
2022-10-30T10:41:35.971Z,1013.43
2022-10-30T10:42:35.704Z,1013.41
2022-10-30T10:43:35.736Z,1013.37
2022-10-30T10:44:35.768Z,1013.38
2022-10-30T10:45:35.799Z,1013.36
2022-10-30T10:46:35.834Z,1013.35
2022-10-30T10:47:35.866Z,1013.28
2022-10-30T10:48:36.152Z,1013.29
2022-10-30T10:49:39.139Z,1013.22
2022-10-30T10:50:35.969Z,1013.24
2022-10-30T10:51:36.001Z,1013.27
2022-10-30T10:52:36.030Z,1013.31
2022-10-30T10:53:36.081Z,1013.30
2022-10-30T10:54:36.121Z,1013.30
2022-10-30T10:55:36.458Z,1013.27
2022-10-30T10:56:36.165Z,1013.21
2022-10-30T10:57:36.205Z,1013.27
2022-10-30T10:59:36.263Z,1013.27
2022-10-30T11:00:36.296Z,1013.24
2022-10-30T11:01:36.448Z,1013.22
2022-10-30T11:02:36.724Z,1013.23
2022-10-30T11:03:36.394Z,1013.25
2022-10-30T11:04:36.430Z,1013.24
2022-10-30T11:05:36.476Z,1013.24
2022-10-30T11:06:36.491Z,1013.23
2022-10-30T11:07:36.534Z,1013.22
2022-10-30T11:08:36.562Z,1013.16
2022-10-30T11:09:36.898Z,1013.17
2022-10-30T11:10:36.642Z,1013.16
2022-10-30T11:11:36.665Z,1013.15
2022-10-30T11:12:36.792Z,1013.16
2022-10-30T11:13:36.730Z,1013.17
2022-10-30T11:14:36.808Z,1013.17
2022-10-30T11:15:36.791Z,1013.13
2022-10-30T11:16:37.071Z,1013.15
2022-10-30T11:17:36.853Z,1013.11
2022-10-30T11:19:36.920Z,1013.10
2022-10-30T11:21:36.986Z,1013.05
2022-10-30T11:22:37.034Z,1013.07
2022-10-30T11:23:37.304Z,1013.04
2022-10-30T11:24:37.085Z,1013.06
2022-10-30T11:26:37.171Z,1013.04
2022-10-30T11:27:37.183Z,1013.01
2022-10-30T11:28:37.217Z,1012.98
2022-10-30T11:31:37.571Z,1013.00
2022-10-30T11:32:37.430Z,1012.97
2022-10-30T11:33:37.380Z,1012.97
2022-10-30T11:35:37.583Z,1012.98
2022-10-30T11:36:37.485Z,1012.96
2022-10-30T11:37:37.520Z,1012.93
2022-10-30T11:38:37.944Z,1012.93
2022-10-30T11:39:37.581Z,1012.94
2022-10-30T11:40:37.635Z,1012.93
2022-10-30T11:41:37.649Z,1012.96
2022-10-30T11:42:37.715Z,1012.89
2022-10-30T11:43:37.713Z,1012.90
2022-10-30T11:44:37.758Z,1012.91
2022-10-30T11:45:38.032Z,1012.89
2022-10-30T11:46:37.809Z,1012.89
2022-10-30T11:47:37.872Z,1012.90
2022-10-30T11:48:37.879Z,1012.94
2022-10-30T11:49:37.917Z,1012.91
2022-10-30T11:50:37.942Z,1012.92
2022-10-30T11:51:38.482Z,1012.94
2022-10-30T11:52:38.052Z,1012.97
2022-10-30T11:53:38.048Z,1012.93
2022-10-30T11:54:38.077Z,1012.92
2022-10-30T11:55:38.123Z,1012.88
2022-10-30T11:56:38.145Z,1012.88
2022-10-30T11:57:38.479Z,1012.90
2022-10-30T11:58:38.233Z,1012.90
2022-10-30T11:59:38.243Z,1012.90
2022-10-30T12:00:38.275Z,1012.91
2022-10-30T12:01:38.473Z,1012.94
2022-10-30T12:03:38.681Z,1012.95
2022-10-30T12:04:38.405Z,1012.93
2022-10-30T12:05:38.444Z,1012.90
2022-10-30T12:06:38.473Z,1012.93
2022-10-30T12:07:38.524Z,1012.91
2022-10-30T12:08:38.541Z,1012.92
2022-10-30T12:10:38.860Z,1012.95
2022-10-30T12:11:38.642Z,1012.92
2022-10-30T12:12:38.678Z,1012.92
2022-10-30T12:13:38.707Z,1012.89
2022-10-30T12:14:38.760Z,1012.91
2022-10-30T12:15:38.771Z,1012.90
2022-10-30T12:16:38.808Z,1012.90
2022-10-30T12:17:39.252Z,1012.90
2022-10-30T12:18:38.873Z,1012.84
2022-10-30T12:20:38.957Z,1012.84
2022-10-30T12:21:38.974Z,1012.85
2022-10-30T12:22:39.009Z,1012.85
2022-10-30T12:23:39.042Z,1012.84
2022-10-30T12:24:39.374Z,1012.83
2022-10-30T12:25:39.109Z,1012.83
2022-10-30T12:26:39.142Z,1012.84
2022-10-30T12:27:39.225Z,1012.83
2022-10-30T12:28:39.233Z,1012.83
2022-10-30T12:30:06.629Z,1012.85
2022-10-30T12:30:39.293Z,1012.84
2022-10-30T12:31:39.630Z,1012.83
2022-10-30T12:32:39.803Z,1012.83
2022-10-30T12:33:39.409Z,1012.87
2022-10-30T12:34:39.412Z,1012.86
2022-10-30T12:35:39.467Z,1012.82
2022-10-30T12:36:39.472Z,1012.83
2022-10-30T12:37:39.508Z,1012.81
2022-10-30T12:38:39.826Z,1012.76
2022-10-30T12:39:39.583Z,1012.78
2022-10-30T12:40:39.629Z,1012.81
2022-10-30T12:41:39.650Z,1012.80
2022-10-30T12:42:39.772Z,1012.78
2022-10-30T12:43:39.779Z,1012.78
2022-10-30T12:44:39.767Z,1012.73
2022-10-30T12:45:40.083Z,1012.75
2022-10-30T12:46:39.831Z,1012.75
2022-10-30T12:47:39.847Z,1012.77
2022-10-30T12:48:39.876Z,1012.73
2022-10-30T12:49:39.916Z,1012.73
2022-10-30T12:50:39.962Z,1012.73
2022-10-30T12:51:39.993Z,1012.74
2022-10-30T12:52:40.342Z,1012.76
2022-10-30T12:53:40.098Z,1012.72
2022-10-30T12:54:40.084Z,1012.70
2022-10-30T12:55:40.197Z,1012.73
2022-10-30T12:58:40.516Z,1012.76
2022-10-30T12:59:40.256Z,1012.75
2022-10-30T13:00:40.286Z,1012.69
2022-10-30T13:01:40.519Z,1012.71
2022-10-30T13:02:40.373Z,1012.65
2022-10-30T13:03:40.381Z,1012.71
2022-10-30T13:04:40.431Z,1012.64
2022-10-30T13:05:40.811Z,1012.63
2022-10-30T13:06:40.493Z,1012.63
2022-10-30T13:07:40.528Z,1012.63
2022-10-30T13:08:40.711Z,1012.63
2022-10-30T13:09:40.583Z,1012.60
2022-10-30T13:10:40.637Z,1012.57
2022-10-30T13:11:41.126Z,1012.55
2022-10-30T13:12:40.716Z,1012.55
2022-10-30T13:13:40.760Z,1012.55
2022-10-30T13:14:40.766Z,1012.58
2022-10-30T13:15:40.808Z,1012.55
2022-10-30T13:17:41.181Z,1012.56
2022-10-30T13:18:40.904Z,1012.56
2022-10-30T13:19:40.917Z,1012.53
2022-10-30T13:20:40.969Z,1012.51
2022-10-30T13:21:41.165Z,1012.49
2022-10-30T13:22:41.105Z,1012.48
2022-10-30T13:23:41.389Z,1012.48
2022-10-30T13:24:41.175Z,1012.48
2022-10-30T13:25:41.167Z,1012.48
2022-10-30T13:26:41.151Z,1012.50
2022-10-30T13:27:41.199Z,1012.48
2022-10-30T13:28:41.277Z,1012.52
2022-10-30T13:29:41.286Z,1012.51
2022-10-30T13:30:41.610Z,1012.51
2022-10-30T13:31:41.326Z,1012.52
2022-10-30T13:32:41.459Z,1012.48
2022-10-30T13:33:41.429Z,1012.53
2022-10-30T13:34:41.451Z,1012.50
2022-10-30T13:35:41.511Z,1012.50
2022-10-30T13:36:41.543Z,1012.47